sensor_id;sensor_type;location;lat;lon;timestamp;temperature;humidity
13436;DHT22;6790;49.520;8.504;2023-01-26T00:01:14;1.10;99.90
13436;DHT22;6790;49.520;8.504;2023-01-26T00:03:40;1.10;99.90
13436;DHT22;6790;49.520;8.504;2023-01-26T00:06:08;1.10;99.90
13436;DHT22;6790;49.520;8.504;2023-01-26T00:08:37;1.10;99.90
13436;DHT22;6790;49.520;8.504;2023-01-26T00:11:05;1.10;99.90
13436;DHT22;6790;49.520;8.504;2023-01-26T00:13:32;1.10;99.90
13436;DHT22;6790;49.520;8.504;2023-01-26T00:15:58;1.10;99.90
13436;DHT22;6790;49.520;8.504;2023-01-26T00:18:25;1.10;99.90
13436;DHT22;6790;49.520;8.504;2023-01-26T00:21:01;1.10;99.90
13436;DHT22;6790;49.520;8.504;2023-01-26T00:23:28;1.10;99.90
13436;DHT22;6790;49.520;8.504;2023-01-26T00:25:54;1.10;99.90
13436;DHT22;6790;49.520;8.504;2023-01-26T00:28:20;1.10;99.90
13436;DHT22;6790;49.520;8.504;2023-01-26T00:30:46;1.00;99.90
13436;DHT22;6790;49.520;8.504;2023-01-26T00:33:12;1.10;99.90
13436;DHT22;6790;49.520;8.504;2023-01-26T00:35:38;1.10;99.90
13436;DHT22;6790;49.520;8.504;2023-01-26T00:38:03;1.10;99.90
13436;DHT22;6790;49.520;8.504;2023-01-26T00:40:30;1.10;99.90
13436;DHT22;6790;49.520;8.504;2023-01-26T00:42:55;1.00;99.90
13436;DHT22;6790;49.520;8.504;2023-01-26T00:45:22;1.10;99.90
13436;DHT22;6790;49.520;8.504;2023-01-26T00:47:47;1.10;99.90
13436;DHT22;6790;49.520;8.504;2023-01-26T00:50:13;1.00;99.90
13436;DHT22;6790;49.520;8.504;2023-01-26T00:52:39;1.10;99.90
13436;DHT22;6790;49.520;8.504;2023-01-26T00:55:05;1.10;99.90
13436;DHT22;6790;49.520;8.504;2023-01-26T00:57:31;1.00;99.90
13436;DHT22;6790;49.520;8.504;2023-01-26T00:59:57;1.00;99.90
13436;DHT22;6790;49.520;8.504;2023-01-26T01:02:23;1.00;99.90
13436;DHT22;6790;49.520;8.504;2023-01-26T01:04:49;1.00;99.90
13436;DHT22;6790;49.520;8.504;2023-01-26T01:07:15;1.00;99.90
13436;DHT22;6790;49.520;8.504;2023-01-26T01:09:40;1.00;99.90
13436;DHT22;6790;49.520;8.504;2023-01-26T01:12:06;1.00;99.90
13436;DHT22;6790;49.520;8.504;2023-01-26T01:14:32;1.00;99.90
13436;DHT22;6790;49.520;8.504;2023-01-26T01:16:58;1.00;99.90
13436;DHT22;6790;49.520;8.504;2023-01-26T01:19:23;1.00;99.90
13436;DHT22;6790;49.520;8.504;2023-01-26T01:21:49;1.00;99.90
13436;DHT22;6790;49.520;8.504;2023-01-26T01:24:15;1.00;99.90
13436;DHT22;6790;49.520;8.504;2023-01-26T01:26:41;1.00;99.90
13436;DHT22;6790;49.520;8.504;2023-01-26T01:29:08;1.00;99.90
13436;DHT22;6790;49.520;8.504;2023-01-26T01:31:36;0.90;99.90
13436;DHT22;6790;49.520;8.504;2023-01-26T01:34:02;0.90;99.90
13436;DHT22;6790;49.520;8.504;2023-01-26T01:36:28;0.90;99.90
13436;DHT22;6790;49.520;8.504;2023-01-26T01:38:55;0.90;99.90
13436;DHT22;6790;49.520;8.504;2023-01-26T01:41:22;0.90;99.90
13436;DHT22;6790;49.520;8.504;2023-01-26T01:43:48;0.90;99.90
13436;DHT22;6790;49.520;8.504;2023-01-26T01:46:35;0.80;99.90
13436;DHT22;6790;49.520;8.504;2023-01-26T01:49:05;0.80;99.90
13436;DHT22;6790;49.520;8.504;2023-01-26T01:51:43;0.80;99.90
13436;DHT22;6790;49.520;8.504;2023-01-26T01:54:14;0.80;99.90
13436;DHT22;6790;49.520;8.504;2023-01-26T01:56:45;0.80;99.90
13436;DHT22;6790;49.520;8.504;2023-01-26T01:59:13;0.80;99.90
13436;DHT22;6790;49.520;8.504;2023-01-26T02:01:39;0.70;99.90
13436;DHT22;6790;49.520;8.504;2023-01-26T02:04:06;0.80;99.90
13436;DHT22;6790;49.520;8.504;2023-01-26T02:06:41;0.80;99.90
13436;DHT22;6790;49.520;8.504;2023-01-26T02:09:11;0.70;99.90
13436;DHT22;6790;49.520;8.504;2023-01-26T02:12:23;0.70;99.90
13436;DHT22;6790;49.520;8.504;2023-01-26T02:14:52;0.70;99.90
13436;DHT22;6790;49.520;8.504;2023-01-26T02:17:18;0.70;99.90
13436;DHT22;6790;49.520;8.504;2023-01-26T02:28:21;0.60;99.90
13436;DHT22;6790;49.520;8.504;2023-01-26T02:30:49;0.60;99.90
13436;DHT22;6790;49.520;8.504;2023-01-26T02:33:20;0.60;99.90
13436;DHT22;6790;49.520;8.504;2023-01-26T02:35:47;0.70;99.90
13436;DHT22;6790;49.520;8.504;2023-01-26T02:38:13;0.70;99.90
13436;DHT22;6790;49.520;8.504;2023-01-26T02:43:29;0.60;99.90
13436;DHT22;6790;49.520;8.504;2023-01-26T02:45:54;0.70;99.90
13436;DHT22;6790;49.520;8.504;2023-01-26T02:48:20;0.70;99.90
13436;DHT22;6790;49.520;8.504;2023-01-26T02:51:05;0.70;99.90
13436;DHT22;6790;49.520;8.504;2023-01-26T02:53:31;0.70;99.90
13436;DHT22;6790;49.520;8.504;2023-01-26T02:55:57;0.70;99.90
13436;DHT22;6790;49.520;8.504;2023-01-26T02:58:23;0.70;99.90
13436;DHT22;6790;49.520;8.504;2023-01-26T03:00:48;0.70;99.90
13436;DHT22;6790;49.520;8.504;2023-01-26T03:03:17;0.70;99.90
13436;DHT22;6790;49.520;8.504;2023-01-26T03:05:44;0.70;99.90
13436;DHT22;6790;49.520;8.504;2023-01-26T03:08:10;0.70;99.90
13436;DHT22;6790;49.520;8.504;2023-01-26T03:10:36;0.60;99.90
13436;DHT22;6790;49.520;8.504;2023-01-26T03:13:03;0.50;99.90
13436;DHT22;6790;49.520;8.504;2023-01-26T03:15:28;0.50;99.90
13436;DHT22;6790;49.520;8.504;2023-01-26T03:18:12;0.60;99.90
13436;DHT22;6790;49.520;8.504;2023-01-26T03:21:14;0.60;99.90
13436;DHT22;6790;49.520;8.504;2023-01-26T03:23:59;0.70;99.90
13436;DHT22;6790;49.520;8.504;2023-01-26T03:26:44;0.70;99.90
13436;DHT22;6790;49.520;8.504;2023-01-26T03:29:29;0.60;99.90
13436;DHT22;6790;49.520;8.504;2023-01-26T03:31:55;0.60;99.90
13436;DHT22;6790;49.520;8.504;2023-01-26T03:34:21;0.50;99.90
13436;DHT22;6790;49.520;8.504;2023-01-26T03:36:47;0.50;99.90
13436;DHT22;6790;49.520;8.504;2023-01-26T03:39:13;0.50;99.90
13436;DHT22;6790;49.520;8.504;2023-01-26T03:41:59;0.40;99.90
13436;DHT22;6790;49.520;8.504;2023-01-26T03:44:44;0.50;99.90
13436;DHT22;6790;49.520;8.504;2023-01-26T03:47:31;0.50;99.90
13436;DHT22;6790;49.520;8.504;2023-01-26T03:50:15;0.40;99.90
13436;DHT22;6790;49.520;8.504;2023-01-26T03:53:00;0.50;99.90
13436;DHT22;6790;49.520;8.504;2023-01-26T03:55:44;0.50;99.90
13436;DHT22;6790;49.520;8.504;2023-01-26T03:58:28;0.50;99.90
13436;DHT22;6790;49.520;8.504;2023-01-26T04:00:55;0.50;99.90
13436;DHT22;6790;49.520;8.504;2023-01-26T04:03:21;0.50;99.90
13436;DHT22;6790;49.520;8.504;2023-01-26T04:06:06;0.50;99.90
13436;DHT22;6790;49.520;8.504;2023-01-26T04:08:50;0.40;99.90
13436;DHT22;6790;49.520;8.504;2023-01-26T04:11:15;0.40;99.90
13436;DHT22;6790;49.520;8.504;2023-01-26T04:13:41;0.40;99.90
13436;DHT22;6790;49.520;8.504;2023-01-26T04:16:25;0.50;99.90
13436;DHT22;6790;49.520;8.504;2023-01-26T04:19:09;0.50;99.90
13436;DHT22;6790;49.520;8.504;2023-01-26T04:21:53;0.40;99.90
13436;DHT22;6790;49.520;8.504;2023-01-26T04:24:19;0.50;99.90
13436;DHT22;6790;49.520;8.504;2023-01-26T04:26:46;0.50;99.90
13436;DHT22;6790;49.520;8.504;2023-01-26T04:29:14;0.50;99.90
13436;DHT22;6790;49.520;8.504;2023-01-26T04:31:41;0.50;99.90
13436;DHT22;6790;49.520;8.504;2023-01-26T04:34:11;0.40;99.90
13436;DHT22;6790;49.520;8.504;2023-01-26T04:36:39;0.50;99.90
13436;DHT22;6790;49.520;8.504;2023-01-26T04:39:05;0.50;99.90
13436;DHT22;6790;49.520;8.504;2023-01-26T04:41:31;0.50;99.90
13436;DHT22;6790;49.520;8.504;2023-01-26T04:43:57;0.40;99.90
13436;DHT22;6790;49.520;8.504;2023-01-26T04:46:23;0.50;99.90
13436;DHT22;6790;49.520;8.504;2023-01-26T04:48:49;0.50;99.90
13436;DHT22;6790;49.520;8.504;2023-01-26T04:51:17;0.50;99.90
13436;DHT22;6790;49.520;8.504;2023-01-26T04:53:48;0.50;99.90
13436;DHT22;6790;49.520;8.504;2023-01-26T04:56:26;0.50;99.90
13436;DHT22;6790;49.520;8.504;2023-01-26T04:58:54;0.50;99.90
13436;DHT22;6790;49.520;8.504;2023-01-26T05:01:21;0.50;99.90
13436;DHT22;6790;49.520;8.504;2023-01-26T05:03:47;0.50;99.90
13436;DHT22;6790;49.520;8.504;2023-01-26T05:06:12;0.50;99.90
13436;DHT22;6790;49.520;8.504;2023-01-26T05:08:38;0.50;99.90
13436;DHT22;6790;49.520;8.504;2023-01-26T05:11:04;0.50;99.90
13436;DHT22;6790;49.520;8.504;2023-01-26T05:13:30;0.50;99.90
13436;DHT22;6790;49.520;8.504;2023-01-26T05:15:56;0.50;99.90
13436;DHT22;6790;49.520;8.504;2023-01-26T05:18:21;0.50;99.90
13436;DHT22;6790;49.520;8.504;2023-01-26T05:20:47;0.60;99.90
13436;DHT22;6790;49.520;8.504;2023-01-26T05:23:13;0.60;99.90
13436;DHT22;6790;49.520;8.504;2023-01-26T05:25:38;0.50;99.90
13436;DHT22;6790;49.520;8.504;2023-01-26T05:28:05;0.50;99.90
13436;DHT22;6790;49.520;8.504;2023-01-26T05:30:30;0.50;99.90
13436;DHT22;6790;49.520;8.504;2023-01-26T05:33:01;0.50;99.90
13436;DHT22;6790;49.520;8.504;2023-01-26T05:35:30;0.50;99.90
13436;DHT22;6790;49.520;8.504;2023-01-26T05:37:56;0.50;99.90
13436;DHT22;6790;49.520;8.504;2023-01-26T05:40:22;0.50;99.90
13436;DHT22;6790;49.520;8.504;2023-01-26T05:42:49;0.50;99.90
13436;DHT22;6790;49.520;8.504;2023-01-26T05:45:15;0.50;99.90
13436;DHT22;6790;49.520;8.504;2023-01-26T05:47:42;0.50;99.90
13436;DHT22;6790;49.520;8.504;2023-01-26T05:50:10;0.50;99.90
13436;DHT22;6790;49.520;8.504;2023-01-26T05:52:36;0.60;99.90
13436;DHT22;6790;49.520;8.504;2023-01-26T05:55:03;0.50;99.90
13436;DHT22;6790;49.520;8.504;2023-01-26T05:57:30;0.60;99.90
13436;DHT22;6790;49.520;8.504;2023-01-26T05:59:55;0.60;99.90
13436;DHT22;6790;49.520;8.504;2023-01-26T06:02:21;0.50;99.90
13436;DHT22;6790;49.520;8.504;2023-01-26T06:04:47;0.50;99.90
13436;DHT22;6790;49.520;8.504;2023-01-26T06:07:13;0.50;99.90
13436;DHT22;6790;49.520;8.504;2023-01-26T06:09:39;0.60;99.90
13436;DHT22;6790;49.520;8.504;2023-01-26T06:12:08;0.60;99.90
13436;DHT22;6790;49.520;8.504;2023-01-26T06:14:38;0.60;99.90
13436;DHT22;6790;49.520;8.504;2023-01-26T06:17:04;0.60;99.90
13436;DHT22;6790;49.520;8.504;2023-01-26T06:19:29;0.60;99.90
13436;DHT22;6790;49.520;8.504;2023-01-26T06:21:55;0.60;99.90
13436;DHT22;6790;49.520;8.504;2023-01-26T06:24:21;0.60;99.90
13436;DHT22;6790;49.520;8.504;2023-01-26T06:26:48;0.60;99.90
13436;DHT22;6790;49.520;8.504;2023-01-26T06:29:14;0.60;99.90
13436;DHT22;6790;49.520;8.504;2023-01-26T06:31:40;0.60;99.90
13436;DHT22;6790;49.520;8.504;2023-01-26T06:34:06;0.50;99.90
13436;DHT22;6790;49.520;8.504;2023-01-26T06:36:33;0.60;99.90
13436;DHT22;6790;49.520;8.504;2023-01-26T06:38:59;0.50;99.90
13436;DHT22;6790;49.520;8.504;2023-01-26T06:41:25;0.50;99.90
13436;DHT22;6790;49.520;8.504;2023-01-26T06:43:50;0.50;99.90
13436;DHT22;6790;49.520;8.504;2023-01-26T06:46:17;0.50;99.90
13436;DHT22;6790;49.520;8.504;2023-01-26T06:48:43;0.50;99.90
13436;DHT22;6790;49.520;8.504;2023-01-26T06:53:55;0.40;99.90
13436;DHT22;6790;49.520;8.504;2023-01-26T06:56:22;0.50;99.90
13436;DHT22;6790;49.520;8.504;2023-01-26T06:58:48;0.50;99.90
13436;DHT22;6790;49.520;8.504;2023-01-26T07:01:17;0.40;99.90
13436;DHT22;6790;49.520;8.504;2023-01-26T07:03:48;0.40;99.90
13436;DHT22;6790;49.520;8.504;2023-01-26T07:06:14;0.50;99.90
13436;DHT22;6790;49.520;8.504;2023-01-26T07:08:39;0.40;99.90
13436;DHT22;6790;49.520;8.504;2023-01-26T07:11:06;0.50;99.90
13436;DHT22;6790;49.520;8.504;2023-01-26T07:13:32;0.40;99.90
13436;DHT22;6790;49.520;8.504;2023-01-26T07:16:06;0.40;99.90
13436;DHT22;6790;49.520;8.504;2023-01-26T07:18:35;0.50;99.90
13436;DHT22;6790;49.520;8.504;2023-01-26T07:21:10;0.40;99.90
13436;DHT22;6790;49.520;8.504;2023-01-26T07:23:38;0.40;99.90
13436;DHT22;6790;49.520;8.504;2023-01-26T07:26:04;0.40;99.90
13436;DHT22;6790;49.520;8.504;2023-01-26T07:28:30;0.40;99.90
13436;DHT22;6790;49.520;8.504;2023-01-26T07:30:59;0.30;99.90
13436;DHT22;6790;49.520;8.504;2023-01-26T07:33:27;0.30;99.90
13436;DHT22;6790;49.520;8.504;2023-01-26T07:35:54;0.30;99.90
13436;DHT22;6790;49.520;8.504;2023-01-26T07:38:20;0.30;99.90
13436;DHT22;6790;49.520;8.504;2023-01-26T07:40:46;0.20;99.90
13436;DHT22;6790;49.520;8.504;2023-01-26T07:43:12;0.20;99.90
13436;DHT22;6790;49.520;8.504;2023-01-26T07:45:43;0.30;99.90
13436;DHT22;6790;49.520;8.504;2023-01-26T07:48:16;0.30;99.90
13436;DHT22;6790;49.520;8.504;2023-01-26T07:50:43;0.20;99.90
13436;DHT22;6790;49.520;8.504;2023-01-26T07:53:10;0.30;99.90
13436;DHT22;6790;49.520;8.504;2023-01-26T07:55:37;0.30;99.90
13436;DHT22;6790;49.520;8.504;2023-01-26T07:58:03;0.40;99.90
13436;DHT22;6790;49.520;8.504;2023-01-26T08:00:29;0.30;99.90
13436;DHT22;6790;49.520;8.504;2023-01-26T08:02:54;0.30;99.90
13436;DHT22;6790;49.520;8.504;2023-01-26T08:05:20;0.30;99.90
13436;DHT22;6790;49.520;8.504;2023-01-26T08:07:46;0.30;99.90
13436;DHT22;6790;49.520;8.504;2023-01-26T08:10:11;0.30;99.90
13436;DHT22;6790;49.520;8.504;2023-01-26T08:12:39;0.30;99.90
13436;DHT22;6790;49.520;8.504;2023-01-26T08:15:05;0.30;99.90
13436;DHT22;6790;49.520;8.504;2023-01-26T08:17:31;0.30;99.90
13436;DHT22;6790;49.520;8.504;2023-01-26T08:19:58;0.40;99.90
13436;DHT22;6790;49.520;8.504;2023-01-26T08:22:24;0.40;99.90
13436;DHT22;6790;49.520;8.504;2023-01-26T08:24:50;0.50;99.90
13436;DHT22;6790;49.520;8.504;2023-01-26T08:27:16;0.30;99.90
13436;DHT22;6790;49.520;8.504;2023-01-26T08:29:42;0.40;99.90
13436;DHT22;6790;49.520;8.504;2023-01-26T08:32:07;0.40;99.90
13436;DHT22;6790;49.520;8.504;2023-01-26T08:34:34;0.40;99.90
13436;DHT22;6790;49.520;8.504;2023-01-26T08:37:00;0.40;99.90
13436;DHT22;6790;49.520;8.504;2023-01-26T08:39:26;0.50;99.90
13436;DHT22;6790;49.520;8.504;2023-01-26T08:41:52;0.40;99.90
13436;DHT22;6790;49.520;8.504;2023-01-26T08:44:18;0.50;99.90
13436;DHT22;6790;49.520;8.504;2023-01-26T08:46:44;0.40;99.90
13436;DHT22;6790;49.520;8.504;2023-01-26T08:49:09;0.40;99.90
13436;DHT22;6790;49.520;8.504;2023-01-26T08:51:35;0.40;99.90
13436;DHT22;6790;49.520;8.504;2023-01-26T08:54:03;0.50;99.90
13436;DHT22;6790;49.520;8.504;2023-01-26T08:56:30;0.40;99.90
13436;DHT22;6790;49.520;8.504;2023-01-26T08:58:55;0.40;99.90
13436;DHT22;6790;49.520;8.504;2023-01-26T09:01:21;0.40;99.90
13436;DHT22;6790;49.520;8.504;2023-01-26T09:03:47;0.50;99.90
13436;DHT22;6790;49.520;8.504;2023-01-26T09:06:13;0.50;99.90
13436;DHT22;6790;49.520;8.504;2023-01-26T09:08:40;0.50;99.90
13436;DHT22;6790;49.520;8.504;2023-01-26T09:11:06;0.50;99.90
13436;DHT22;6790;49.520;8.504;2023-01-26T09:13:32;0.60;99.90
13436;DHT22;6790;49.520;8.504;2023-01-26T09:16:01;0.50;99.90
13436;DHT22;6790;49.520;8.504;2023-01-26T09:18:27;0.50;99.90
13436;DHT22;6790;49.520;8.504;2023-01-26T09:20:53;0.50;99.90
13436;DHT22;6790;49.520;8.504;2023-01-26T09:23:20;0.60;99.90
13436;DHT22;6790;49.520;8.504;2023-01-26T09:25:51;0.50;99.90
13436;DHT22;6790;49.520;8.504;2023-01-26T09:28:17;0.60;99.90
13436;DHT22;6790;49.520;8.504;2023-01-26T09:30:43;0.50;99.90
13436;DHT22;6790;49.520;8.504;2023-01-26T09:33:09;0.60;99.90
13436;DHT22;6790;49.520;8.504;2023-01-26T09:35:34;0.60;99.90
13436;DHT22;6790;49.520;8.504;2023-01-26T09:38:00;0.50;99.90
13436;DHT22;6790;49.520;8.504;2023-01-26T09:40:56;0.60;99.90
13436;DHT22;6790;49.520;8.504;2023-01-26T09:43:41;0.60;99.90
13436;DHT22;6790;49.520;8.504;2023-01-26T09:46:24;0.70;99.90
13436;DHT22;6790;49.520;8.504;2023-01-26T09:49:12;0.70;99.90
13436;DHT22;6790;49.520;8.504;2023-01-26T09:51:51;0.70;99.90
13436;DHT22;6790;49.520;8.504;2023-01-26T09:54:41;0.80;99.90
13436;DHT22;6790;49.520;8.504;2023-01-26T09:57:17;0.80;99.90
13436;DHT22;6790;49.520;8.504;2023-01-26T10:00:02;0.80;99.90
13436;DHT22;6790;49.520;8.504;2023-01-26T10:05:48;0.90;99.90
13436;DHT22;6790;49.520;8.504;2023-01-26T10:08:20;0.90;99.90
13436;DHT22;6790;49.520;8.504;2023-01-26T10:10:53;0.90;99.90
13436;DHT22;6790;49.520;8.504;2023-01-26T10:13:22;0.80;99.90
13436;DHT22;6790;49.520;8.504;2023-01-26T10:15:56;0.80;99.90
13436;DHT22;6790;49.520;8.504;2023-01-26T10:18:27;1.00;99.90
13436;DHT22;6790;49.520;8.504;2023-01-26T10:20:59;1.00;99.90
13436;DHT22;6790;49.520;8.504;2023-01-26T10:23:29;1.00;99.90
13436;DHT22;6790;49.520;8.504;2023-01-26T10:26:10;1.10;99.90
13436;DHT22;6790;49.520;8.504;2023-01-26T10:28:40;1.20;99.90
13436;DHT22;6790;49.520;8.504;2023-01-26T10:33:51;1.20;99.90
13436;DHT22;6790;49.520;8.504;2023-01-26T10:36:24;1.00;99.90
13436;DHT22;6790;49.520;8.504;2023-01-26T10:38:50;1.10;99.90
13436;DHT22;6790;49.520;8.504;2023-01-26T10:41:22;1.20;99.90
13436;DHT22;6790;49.520;8.504;2023-01-26T10:46:27;1.10;99.90
13436;DHT22;6790;49.520;8.504;2023-01-26T10:48:56;1.10;99.90
13436;DHT22;6790;49.520;8.504;2023-01-26T10:51:27;1.10;99.90
13436;DHT22;6790;49.520;8.504;2023-01-26T10:54:25;1.00;99.90
13436;DHT22;6790;49.520;8.504;2023-01-26T10:57:01;1.00;99.90
13436;DHT22;6790;49.520;8.504;2023-01-26T10:59:50;1.10;99.90
13436;DHT22;6790;49.520;8.504;2023-01-26T11:02:22;1.10;99.90
13436;DHT22;6790;49.520;8.504;2023-01-26T11:07:40;1.00;99.90
13436;DHT22;6790;49.520;8.504;2023-01-26T11:13:13;1.00;99.90
13436;DHT22;6790;49.520;8.504;2023-01-26T11:15:50;1.10;99.90
13436;DHT22;6790;49.520;8.504;2023-01-26T11:21:19;1.10;99.90
13436;DHT22;6790;49.520;8.504;2023-01-26T11:24:10;1.10;99.90
13436;DHT22;6790;49.520;8.504;2023-01-26T11:35:15;1.00;99.90
13436;DHT22;6790;49.520;8.504;2023-01-26T11:38:29;1.00;99.90
13436;DHT22;6790;49.520;8.504;2023-01-26T12:01:02;0.90;99.90
13436;DHT22;6790;49.520;8.504;2023-01-26T12:06:37;0.90;99.90
13436;DHT22;6790;49.520;8.504;2023-01-26T12:09:05;0.80;99.90
13436;DHT22;6790;49.520;8.504;2023-01-26T12:17:17;0.80;99.90
13436;DHT22;6790;49.520;8.504;2023-01-26T12:20:16;0.80;99.90
13436;DHT22;6790;49.520;8.504;2023-01-26T12:25:35;0.70;99.90
13436;DHT22;6790;49.520;8.504;2023-01-26T12:33:39;0.70;99.90
13436;DHT22;6790;49.520;8.504;2023-01-26T12:45:26;0.50;99.90
13436;DHT22;6790;49.520;8.504;2023-01-26T12:47:59;0.50;99.90
13436;DHT22;6790;49.520;8.504;2023-01-26T12:50:38;0.50;99.90
13436;DHT22;6790;49.520;8.504;2023-01-26T12:53:25;0.60;99.90
13436;DHT22;6790;49.520;8.504;2023-01-26T12:56:23;0.60;99.90
13436;DHT22;6790;49.520;8.504;2023-01-26T12:58:54;0.60;99.90
13436;DHT22;6790;49.520;8.504;2023-01-26T13:01:23;0.60;99.90
13436;DHT22;6790;49.520;8.504;2023-01-26T13:03:51;0.70;99.90
13436;DHT22;6790;49.520;8.504;2023-01-26T13:06:20;0.70;99.90
13436;DHT22;6790;49.520;8.504;2023-01-26T13:11:55;0.70;99.90
13436;DHT22;6790;49.520;8.504;2023-01-26T13:14:38;0.70;99.90
13436;DHT22;6790;49.520;8.504;2023-01-26T13:19:53;0.70;99.90
13436;DHT22;6790;49.520;8.504;2023-01-26T13:25:12;0.80;99.90
13436;DHT22;6790;49.520;8.504;2023-01-26T13:28:00;0.80;99.90
13436;DHT22;6790;49.520;8.504;2023-01-26T13:33:13;0.80;99.90
13436;DHT22;6790;49.520;8.504;2023-01-26T13:35:41;0.80;99.90
13436;DHT22;6790;49.520;8.504;2023-01-26T13:38:32;0.80;99.90
13436;DHT22;6790;49.520;8.504;2023-01-26T13:41:00;0.70;99.90
13436;DHT22;6790;49.520;8.504;2023-01-26T13:43:40;0.70;99.90
13436;DHT22;6790;49.520;8.504;2023-01-26T13:46:13;0.80;99.90
13436;DHT22;6790;49.520;8.504;2023-01-26T13:51:17;0.60;99.90
13436;DHT22;6790;49.520;8.504;2023-01-26T13:57:03;0.60;99.90
13436;DHT22;6790;49.520;8.504;2023-01-26T13:59:31;0.60;99.90
13436;DHT22;6790;49.520;8.504;2023-01-26T14:01:58;0.60;99.90
13436;DHT22;6790;49.520;8.504;2023-01-26T14:04:31;0.60;99.90
13436;DHT22;6790;49.520;8.504;2023-01-26T14:07:08;0.50;99.90
13436;DHT22;6790;49.520;8.504;2023-01-26T14:09:48;0.50;99.90
13436;DHT22;6790;49.520;8.504;2023-01-26T14:12:30;0.50;99.90
13436;DHT22;6790;49.520;8.504;2023-01-26T14:15:00;0.50;99.90
13436;DHT22;6790;49.520;8.504;2023-01-26T14:17:33;0.50;99.90
13436;DHT22;6790;49.520;8.504;2023-01-26T14:20:25;0.50;99.90
13436;DHT22;6790;49.520;8.504;2023-01-26T14:25:41;0.50;99.90
13436;DHT22;6790;49.520;8.504;2023-01-26T14:28:15;0.50;99.90
13436;DHT22;6790;49.520;8.504;2023-01-26T14:30:42;0.50;99.90
13436;DHT22;6790;49.520;8.504;2023-01-26T14:33:12;0.50;99.90
13436;DHT22;6790;49.520;8.504;2023-01-26T14:35:40;0.50;99.90
13436;DHT22;6790;49.520;8.504;2023-01-26T14:38:14;0.50;99.90
13436;DHT22;6790;49.520;8.504;2023-01-26T14:40:49;0.50;99.90
13436;DHT22;6790;49.520;8.504;2023-01-26T14:43:16;0.50;99.90
13436;DHT22;6790;49.520;8.504;2023-01-26T14:46:06;0.40;99.90
13436;DHT22;6790;49.520;8.504;2023-01-26T14:48:55;0.50;99.90
13436;DHT22;6790;49.520;8.504;2023-01-26T14:51:26;0.50;99.90
13436;DHT22;6790;49.520;8.504;2023-01-26T14:53:59;0.40;99.90
13436;DHT22;6790;49.520;8.504;2023-01-26T14:56:34;0.40;99.90
13436;DHT22;6790;49.520;8.504;2023-01-26T14:59:04;0.50;99.90
13436;DHT22;6790;49.520;8.504;2023-01-26T15:01:31;0.40;99.90
13436;DHT22;6790;49.520;8.504;2023-01-26T15:04:02;0.50;99.90
13436;DHT22;6790;49.520;8.504;2023-01-26T15:06:31;0.40;99.90
13436;DHT22;6790;49.520;8.504;2023-01-26T15:11:28;0.50;99.90
13436;DHT22;6790;49.520;8.504;2023-01-26T15:14:36;0.40;99.90
13436;DHT22;6790;49.520;8.504;2023-01-26T15:17:37;0.40;99.90
13436;DHT22;6790;49.520;8.504;2023-01-26T15:22:56;0.40;99.90
13436;DHT22;6790;49.520;8.504;2023-01-26T15:25:27;0.40;99.90
13436;DHT22;6790;49.520;8.504;2023-01-26T15:28:00;0.40;99.90
13436;DHT22;6790;49.520;8.504;2023-01-26T15:30:28;0.40;99.90
13436;DHT22;6790;49.520;8.504;2023-01-26T15:32:56;0.40;99.90
13436;DHT22;6790;49.520;8.504;2023-01-26T15:38:09;0.40;99.90
13436;DHT22;6790;49.520;8.504;2023-01-26T15:40:36;0.30;99.90
13436;DHT22;6790;49.520;8.504;2023-01-26T15:45:51;0.40;99.90
13436;DHT22;6790;49.520;8.504;2023-01-26T15:48:18;0.40;99.90
13436;DHT22;6790;49.520;8.504;2023-01-26T15:50:45;0.40;99.90
13436;DHT22;6790;49.520;8.504;2023-01-26T15:53:20;0.30;99.90
13436;DHT22;6790;49.520;8.504;2023-01-26T15:55:48;0.30;99.90
13436;DHT22;6790;49.520;8.504;2023-01-26T15:58:21;0.40;99.90
13436;DHT22;6790;49.520;8.504;2023-01-26T16:00:48;0.30;99.90
13436;DHT22;6790;49.520;8.504;2023-01-26T16:03:16;0.30;99.90
13436;DHT22;6790;49.520;8.504;2023-01-26T16:05:43;0.30;99.90
13436;DHT22;6790;49.520;8.504;2023-01-26T16:08:12;0.30;99.90
13436;DHT22;6790;49.520;8.504;2023-01-26T16:10:39;0.20;99.90
13436;DHT22;6790;49.520;8.504;2023-01-26T16:13:09;0.20;99.90
13436;DHT22;6790;49.520;8.504;2023-01-26T16:15:51;0.20;99.90
13436;DHT22;6790;49.520;8.504;2023-01-26T16:18:18;0.20;99.90
13436;DHT22;6790;49.520;8.504;2023-01-26T16:20:46;0.20;99.90
13436;DHT22;6790;49.520;8.504;2023-01-26T16:23:19;0.20;99.90
13436;DHT22;6790;49.520;8.504;2023-01-26T16:25:47;0.20;99.90
13436;DHT22;6790;49.520;8.504;2023-01-26T16:28:13;0.20;99.90
13436;DHT22;6790;49.520;8.504;2023-01-26T16:30:41;0.20;99.90
13436;DHT22;6790;49.520;8.504;2023-01-26T16:33:11;0.20;99.90
13436;DHT22;6790;49.520;8.504;2023-01-26T16:35:37;0.20;99.90
13436;DHT22;6790;49.520;8.504;2023-01-26T16:38:03;0.10;99.90
13436;DHT22;6790;49.520;8.504;2023-01-26T16:40:31;0.10;99.90
13436;DHT22;6790;49.520;8.504;2023-01-26T16:42:58;0.20;99.90
13436;DHT22;6790;49.520;8.504;2023-01-26T16:45:25;0.20;99.90
13436;DHT22;6790;49.520;8.504;2023-01-26T16:47:53;0.20;99.90
13436;DHT22;6790;49.520;8.504;2023-01-26T16:50:21;0.20;99.90
13436;DHT22;6790;49.520;8.504;2023-01-26T16:52:47;0.20;99.90
13436;DHT22;6790;49.520;8.504;2023-01-26T16:55:13;0.20;99.90
13436;DHT22;6790;49.520;8.504;2023-01-26T16:57:41;0.20;99.90
13436;DHT22;6790;49.520;8.504;2023-01-26T17:00:17;0.20;99.90
13436;DHT22;6790;49.520;8.504;2023-01-26T17:02:47;0.20;99.90
13436;DHT22;6790;49.520;8.504;2023-01-26T17:05:18;0.20;99.90
13436;DHT22;6790;49.520;8.504;2023-01-26T17:07:45;0.20;99.90
13436;DHT22;6790;49.520;8.504;2023-01-26T17:10:13;0.20;99.90
13436;DHT22;6790;49.520;8.504;2023-01-26T17:12:39;0.10;99.90
13436;DHT22;6790;49.520;8.504;2023-01-26T17:15:06;0.20;99.90
13436;DHT22;6790;49.520;8.504;2023-01-26T17:17:34;0.20;99.90
13436;DHT22;6790;49.520;8.504;2023-01-26T17:20:00;0.20;99.90
13436;DHT22;6790;49.520;8.504;2023-01-26T17:22:27;0.20;99.90
13436;DHT22;6790;49.520;8.504;2023-01-26T17:24:54;0.10;99.90
13436;DHT22;6790;49.520;8.504;2023-01-26T17:27:20;0.20;99.90
13436;DHT22;6790;49.520;8.504;2023-01-26T17:29:47;0.20;99.90
13436;DHT22;6790;49.520;8.504;2023-01-26T17:32:14;0.20;99.90
13436;DHT22;6790;49.520;8.504;2023-01-26T17:34:42;0.20;99.90
13436;DHT22;6790;49.520;8.504;2023-01-26T17:37:07;0.20;99.90
13436;DHT22;6790;49.520;8.504;2023-01-26T17:39:33;0.20;99.90
13436;DHT22;6790;49.520;8.504;2023-01-26T17:41:59;0.20;99.90
13436;DHT22;6790;49.520;8.504;2023-01-26T17:44:25;0.20;99.90
13436;DHT22;6790;49.520;8.504;2023-01-26T17:46:51;0.20;99.90
13436;DHT22;6790;49.520;8.504;2023-01-26T17:49:16;0.20;99.90
13436;DHT22;6790;49.520;8.504;2023-01-26T17:51:42;0.20;99.90
13436;DHT22;6790;49.520;8.504;2023-01-26T17:54:11;0.20;99.90
13436;DHT22;6790;49.520;8.504;2023-01-26T17:56:37;0.20;99.90
13436;DHT22;6790;49.520;8.504;2023-01-26T17:59:02;0.20;99.90
13436;DHT22;6790;49.520;8.504;2023-01-26T18:01:28;0.10;99.90
13436;DHT22;6790;49.520;8.504;2023-01-26T18:03:55;0.20;99.90
13436;DHT22;6790;49.520;8.504;2023-01-26T18:06:20;0.20;99.90
13436;DHT22;6790;49.520;8.504;2023-01-26T18:08:46;0.20;99.90
13436;DHT22;6790;49.520;8.504;2023-01-26T18:11:14;0.20;99.90
13436;DHT22;6790;49.520;8.504;2023-01-26T18:13:40;0.20;99.90
13436;DHT22;6790;49.520;8.504;2023-01-26T18:16:07;0.20;99.90
13436;DHT22;6790;49.520;8.504;2023-01-26T18:18:34;0.20;99.90